createdAt,value
2022-08-07T00:01:44.306Z,5.75
2022-08-07T00:04:25.154Z,7.82
2022-08-07T00:06:52.571Z,8.27
2022-08-07T00:09:22.582Z,7.25
2022-08-07T00:11:55.390Z,6.70
2022-08-07T00:14:25.214Z,5.50
2022-08-07T00:16:52.922Z,6.78
2022-08-07T00:19:21.526Z,5.95
2022-08-07T00:21:57.429Z,7.80
2022-08-07T00:24:31.782Z,5.88
2022-08-07T00:27:07.202Z,6.50
2022-08-07T00:29:37.153Z,6.93
2022-08-07T00:32:06.835Z,4.53
2022-08-07T00:34:35.394Z,5.45
2022-08-07T00:37:05.128Z,6.82
2022-08-07T00:39:35.924Z,6.15
2022-08-07T00:42:06.605Z,6.63
2022-08-07T00:44:35.352Z,6.25
2022-08-07T00:47:15.800Z,6.95
2022-08-07T00:50:20.775Z,4.80
2022-08-07T00:52:41.148Z,8.45
2022-08-07T00:55:10.556Z,7.38
2022-08-07T00:57:38.019Z,4.95
2022-08-07T01:00:22.684Z,6.10
2022-08-07T01:02:51.037Z,6.15
2022-08-07T01:05:19.351Z,5.93
2022-08-07T01:07:47.233Z,7.65
2022-08-07T01:10:18.283Z,6.83
2022-08-07T01:12:54.013Z,8.07
2022-08-07T01:16:00.903Z,6.95
2022-08-07T01:18:17.049Z,7.25
2022-08-07T01:20:57.573Z,6.53
2022-08-07T01:23:35.385Z,7.72
2022-08-07T01:26:08.159Z,6.10
2022-08-07T01:28:46.163Z,6.82
2022-08-07T01:31:19.814Z,7.53
2022-08-07T01:36:33.938Z,5.22
2022-08-07T01:39:10.036Z,5.45
2022-08-07T01:41:55.071Z,5.72
2022-08-07T01:44:30.563Z,6.88
2022-08-07T01:46:58.542Z,5.78
2022-08-07T01:49:31.893Z,7.43
2022-08-07T01:52:04.091Z,5.20
2022-08-07T01:54:37.803Z,6.45
2022-08-07T01:57:24.623Z,4.93
2022-08-07T02:00:01.254Z,8.27
2022-08-07T02:03:18.404Z,5.13
2022-08-07T02:05:47.613Z,10.65
2022-08-07T02:08:26.041Z,5.10
2022-08-07T02:10:57.940Z,5.88
2022-08-07T02:13:57.230Z,6.40
2022-08-07T02:16:19.764Z,3.65
2022-08-07T02:18:56.261Z,7.05
2022-08-07T02:21:25.846Z,5.35
2022-08-07T02:23:53.151Z,5.43
2022-08-07T02:26:32.743Z,5.15
2022-08-07T02:29:03.492Z,4.80
2022-08-07T02:31:32.673Z,5.85
2022-08-07T02:34:11.162Z,6.72
2022-08-07T02:36:53.177Z,5.00
2022-08-07T02:39:43.838Z,6.38
2022-08-07T02:42:14.742Z,6.43
2022-08-07T02:44:47.921Z,4.32
2022-08-07T02:47:29.392Z,6.07
2022-08-07T02:50:12.506Z,4.53
2022-08-07T02:52:48.844Z,5.95
2022-08-07T02:55:27.749Z,5.63
2022-08-07T02:58:03.263Z,5.70
2022-08-07T03:00:33.604Z,5.28
2022-08-07T03:03:06.019Z,6.00
2022-08-07T03:05:37.963Z,6.60
2022-08-07T03:08:10.502Z,5.50
2022-08-07T03:10:46.949Z,5.15
2022-08-07T03:13:19.776Z,6.72
2022-08-07T03:15:56.731Z,5.90
2022-08-07T03:18:35.017Z,5.60
2022-08-07T03:21:08.412Z,4.88
2022-08-07T03:24:17.795Z,6.15
2022-08-07T03:26:28.587Z,4.85
2022-08-07T03:28:58.707Z,5.70
2022-08-07T03:31:43.516Z,6.03
2022-08-07T03:34:18.585Z,5.40
2022-08-07T03:36:51.402Z,4.50
2022-08-07T03:39:59.851Z,4.80
2022-08-07T03:42:06.343Z,4.57
2022-08-07T03:44:34.820Z,6.03
2022-08-07T03:47:11.191Z,5.30
2022-08-07T03:49:47.679Z,4.82
2022-08-07T03:52:26.007Z,7.38
2022-08-07T03:55:07.465Z,5.00
2022-08-07T03:58:34.730Z,4.78
2022-08-07T04:00:30.246Z,6.03
2022-08-07T04:02:59.638Z,6.35
2022-08-07T04:05:40.541Z,7.15
2022-08-07T04:08:16.291Z,5.25
2022-08-07T04:10:54.649Z,6.65
2022-08-07T04:14:32.926Z,5.93
2022-08-07T04:16:31.546Z,4.32
2022-08-07T04:19:12.316Z,6.05
2022-08-07T04:21:58.868Z,4.93
2022-08-07T04:24:34.068Z,5.65
2022-08-07T04:27:15.148Z,5.03
2022-08-07T04:30:01.608Z,6.10
2022-08-07T04:32:39.815Z,4.90
2022-08-07T04:35:13.205Z,5.97
2022-08-07T04:38:03.489Z,6.38
2022-08-07T04:40:29.945Z,5.10
2022-08-07T04:43:01.888Z,4.72
2022-08-07T04:46:01.659Z,6.82
2022-08-07T04:48:58.260Z,8.60
2022-08-07T04:51:41.930Z,6.25
2022-08-07T04:54:16.310Z,4.25
2022-08-07T04:58:24.424Z,6.55
2022-08-07T05:00:12.833Z,5.35
2022-08-07T05:02:59.112Z,5.53
2022-08-07T05:05:53.946Z,4.97
2022-08-07T05:08:59.243Z,4.43
2022-08-07T05:11:57.389Z,4.75
2022-08-07T05:14:52.112Z,6.55
2022-08-07T05:17:52.804Z,4.57
2022-08-07T05:20:15.346Z,4.55
2022-08-07T05:25:25.936Z,4.00
2022-08-07T05:28:02.615Z,4.35
2022-08-07T05:30:44.388Z,6.43
2022-08-07T05:33:15.218Z,4.55
2022-08-07T05:35:45.441Z,4.57
2022-08-07T05:38:58.373Z,7.72
2022-08-07T05:41:12.155Z,3.90
2022-08-07T05:44:08.354Z,4.15
2022-08-07T05:46:31.664Z,4.82
2022-08-07T05:48:59.758Z,7.88
2022-08-07T05:51:33.392Z,5.60
2022-08-07T05:54:09.296Z,4.50
2022-08-07T05:56:58.919Z,4.22
2022-08-07T05:59:27.991Z,7.75
2022-08-07T06:02:00.952Z,3.97
2022-08-07T06:04:30.439Z,7.28
2022-08-07T06:07:03.683Z,4.75
2022-08-07T06:10:03.999Z,4.82
2022-08-07T06:12:21.090Z,5.85
2022-08-07T06:14:58.806Z,4.60
2022-08-07T06:17:37.368Z,6.93
2022-08-07T06:20:05.898Z,6.80
2022-08-07T06:22:40.744Z,5.32
2022-08-07T06:25:26.462Z,5.80
2022-08-07T06:28:04.485Z,5.45
2022-08-07T06:30:37.151Z,5.85
2022-08-07T06:33:19.272Z,4.50
2022-08-07T06:36:12.947Z,6.25
2022-08-07T06:38:58.653Z,6.10
2022-08-07T06:42:02.096Z,6.38
2022-08-07T06:44:50.972Z,4.20
2022-08-07T06:47:19.796Z,7.63
2022-08-07T06:49:52.339Z,5.68
2022-08-07T06:52:31.839Z,6.43
2022-08-07T06:55:34.249Z,6.40
2022-08-07T06:57:56.941Z,7.97
2022-08-07T07:00:28.915Z,8.10
2022-08-07T07:03:01.302Z,7.82
2022-08-07T07:08:29.469Z,7.10
2022-08-07T07:10:59.019Z,6.85
2022-08-07T07:13:43.697Z,8.10
2022-08-07T07:16:27.640Z,8.38
2022-08-07T07:19:00.065Z,7.70
2022-08-07T07:22:11.275Z,6.82
2022-08-07T07:24:29.533Z,6.35
2022-08-07T07:26:59.357Z,7.47
2022-08-07T07:29:57.172Z,6.60
2022-08-07T07:32:15.203Z,8.57
2022-08-07T07:34:49.467Z,10.73
2022-08-07T07:37:45.564Z,6.72
2022-08-07T07:40:14.698Z,6.75
2022-08-07T07:42:51.106Z,8.35
2022-08-07T07:46:35.428Z,7.67
2022-08-07T07:48:11.407Z,6.93
2022-08-07T07:50:52.702Z,6.13
2022-08-07T07:53:25.552Z,7.15
2022-08-07T07:56:00.549Z,7.63
2022-08-07T07:58:30.477Z,6.88
2022-08-07T08:02:03.564Z,7.45
2022-08-07T08:04:10.101Z,6.63
2022-08-07T08:06:50.964Z,9.02
2022-08-07T08:09:22.989Z,9.77
2022-08-07T08:12:01.614Z,10.75
2022-08-07T08:17:55.313Z,9.80
2022-08-07T08:20:17.302Z,8.07
2022-08-07T08:23:08.241Z,10.35
2022-08-07T08:25:56.206Z,9.38
2022-08-07T08:28:37.743Z,7.93
2022-08-07T08:31:16.291Z,9.75
2022-08-07T08:33:49.330Z,7.60
2022-08-07T08:36:18.214Z,9.57
2022-08-07T08:38:53.096Z,8.40
2022-08-07T08:41:57.048Z,9.73
2022-08-07T08:44:44.408Z,9.50
2022-08-07T08:47:25.420Z,9.48
2022-08-07T08:50:07.578Z,9.23
2022-08-07T08:53:05.302Z,7.60
2022-08-07T08:55:54.674Z,9.00
2022-08-07T08:58:32.188Z,9.48
2022-08-07T09:01:15.352Z,8.02
2022-08-07T09:04:07.470Z,6.45
2022-08-07T09:07:11.479Z,7.53
2022-08-07T09:09:56.768Z,10.52
2022-08-07T09:12:31.817Z,10.32
2022-08-07T09:16:24.120Z,8.75
2022-08-07T09:18:27.913Z,9.15
2022-08-07T09:21:06.427Z,8.55
2022-08-07T09:24:30.859Z,10.85
2022-08-07T09:27:20.110Z,7.53
2022-08-07T09:30:08.367Z,9.52
2022-08-07T09:32:51.654Z,9.40
2022-08-07T09:36:03.238Z,7.40
2022-08-07T09:38:34.521Z,6.80
2022-08-07T09:41:36.196Z,7.55
2022-08-07T09:44:33.040Z,10.32
2022-08-07T09:47:49.381Z,9.30
2022-08-07T09:50:23.809Z,8.85
2022-08-07T09:53:05.913Z,9.85
2022-08-07T09:56:03.580Z,7.28
2022-08-07T09:58:57.548Z,8.77
2022-08-07T10:01:50.954Z,8.00
2022-08-07T10:04:47.594Z,6.65
2022-08-07T10:07:52.287Z,6.83
2022-08-07T10:11:17.255Z,8.10
2022-08-07T10:14:00.978Z,8.13
2022-08-07T10:16:35.159Z,8.05
2022-08-07T10:19:15.487Z,11.25
2022-08-07T10:22:16.045Z,8.73
2022-08-07T10:24:50.227Z,8.75
2022-08-07T10:27:46.905Z,7.30
2022-08-07T10:30:53.072Z,7.13
2022-08-07T10:34:14.116Z,6.25
2022-08-07T10:36:49.143Z,8.77
2022-08-07T10:39:57.585Z,8.90
2022-08-07T10:43:06.595Z,8.00
2022-08-07T10:45:48.131Z,8.18
2022-08-07T10:48:35.073Z,7.15
2022-08-07T10:51:57.727Z,6.55
2022-08-07T10:54:34.098Z,5.82
2022-08-07T10:57:07.563Z,6.10
2022-08-07T11:00:09.919Z,6.43
2022-08-07T11:03:16.273Z,5.03
2022-08-07T11:05:52.766Z,7.45
2022-08-07T11:08:40.340Z,7.00
2022-08-07T11:11:37.559Z,6.55
2022-08-07T11:14:45.419Z,6.20
2022-08-07T11:17:43.072Z,6.20
2022-08-07T11:20:19.371Z,6.40
2022-08-07T11:22:50.141Z,6.45
2022-08-07T11:25:19.701Z,8.32
2022-08-07T11:28:07.777Z,7.70
2022-08-07T11:31:04.167Z,23.17
2022-08-07T11:33:53.691Z,11.20
2022-08-07T11:36:56.416Z,14.38
2022-08-07T11:40:00.504Z,10.60
2022-08-07T11:42:34.479Z,6.70
2022-08-07T11:45:20.496Z,6.93
2022-08-07T11:47:59.538Z,6.97
2022-08-07T11:50:57.381Z,7.10
2022-08-07T11:54:01.201Z,8.98
2022-08-07T11:56:44.821Z,7.82
2022-08-07T12:00:10.290Z,8.70
2022-08-07T12:02:54.764Z,6.75
2022-08-07T12:05:47.149Z,5.32
2022-08-07T12:08:31.818Z,5.65
2022-08-07T12:11:21.137Z,6.57
2022-08-07T12:13:58.578Z,5.53
2022-08-07T12:16:30.753Z,5.68
2022-08-07T12:19:21.319Z,5.85
2022-08-07T12:22:37.310Z,8.82
2022-08-07T12:26:05.639Z,6.30
2022-08-07T12:28:45.003Z,8.93
2022-08-07T12:31:53.291Z,4.65
2022-08-07T12:34:19.473Z,4.88
2022-08-07T12:36:49.379Z,6.80
2022-08-07T12:39:44.209Z,12.65
2022-08-07T12:42:05.039Z,7.00
2022-08-07T12:44:34.372Z,5.30
2022-08-07T12:47:21.922Z,5.40
2022-08-07T12:50:33.902Z,5.57
2022-08-07T12:53:27.455Z,7.25
2022-08-07T12:56:28.130Z,6.97
2022-08-07T12:58:57.235Z,5.70
2022-08-07T13:01:58.842Z,5.43
2022-08-07T13:04:48.991Z,6.88
2022-08-07T13:08:13.899Z,7.65
2022-08-07T13:11:00.223Z,5.82
2022-08-07T13:13:48.591Z,5.97
2022-08-07T13:16:36.727Z,6.00
2022-08-07T13:19:52.922Z,5.63
2022-08-07T13:22:45.512Z,7.38
2022-08-07T13:25:29.827Z,6.00
2022-08-07T13:28:11.480Z,7.65
2022-08-07T13:30:48.728Z,4.60
2022-08-07T13:34:31.877Z,5.47
2022-08-07T13:36:55.621Z,6.22
2022-08-07T13:40:32.817Z,5.70
2022-08-07T13:42:24.851Z,4.30
2022-08-07T13:45:11.680Z,6.38
2022-08-07T13:48:05.999Z,8.07
2022-08-07T13:50:33.461Z,8.05
2022-08-07T13:53:14.550Z,5.03
2022-08-07T13:55:54.380Z,6.18
2022-08-07T13:58:42.493Z,6.70
2022-08-07T14:01:24.826Z,5.65
2022-08-07T14:04:07.174Z,7.07
2022-08-07T14:06:40.478Z,4.20
2022-08-07T14:09:17.065Z,5.80
2022-08-07T14:12:04.762Z,4.63
2022-08-07T14:17:13.233Z,4.80
2022-08-07T14:20:39.421Z,3.78
2022-08-07T14:23:31.630Z,4.72
2022-08-07T14:26:28.132Z,4.28
2022-08-07T14:29:04.400Z,4.03
2022-08-07T14:34:30.124Z,4.70
2022-08-07T14:37:02.003Z,3.17
2022-08-07T14:40:17.436Z,3.30
2022-08-07T14:42:23.498Z,4.55
2022-08-07T14:44:53.907Z,3.25
2022-08-07T14:47:27.438Z,4.95
2022-08-07T14:52:42.625Z,4.60
2022-08-07T14:55:10.254Z,6.43
2022-08-07T15:00:30.282Z,4.45
2022-08-07T15:03:18.760Z,3.97
2022-08-07T15:05:55.214Z,5.33
2022-08-07T15:08:47.612Z,6.20
2022-08-07T15:11:48.894Z,5.60
2022-08-07T15:14:22.566Z,5.03
2022-08-07T15:17:05.321Z,3.90
2022-08-07T15:20:30.406Z,4.43
2022-08-07T15:22:51.644Z,4.38
2022-08-07T15:25:36.672Z,3.92
2022-08-07T15:28:36.316Z,6.68
2022-08-07T15:31:04.681Z,4.57
2022-08-07T15:33:35.924Z,3.13
2022-08-07T15:42:43.629Z,4.65
2022-08-07T15:50:37.761Z,3.28
2022-08-07T15:53:17.888Z,3.33
2022-08-07T15:56:02.749Z,3.80
2022-08-07T15:58:44.573Z,3.95
2022-08-07T16:01:39.310Z,4.07
2022-08-07T16:04:14.873Z,3.08
2022-08-07T16:06:54.809Z,3.17
2022-08-07T16:09:45.266Z,3.38
2022-08-07T16:12:38.055Z,4.13
2022-08-07T16:15:55.526Z,3.35
2022-08-07T16:18:49.314Z,2.80
2022-08-07T16:21:53.535Z,4.47
2022-08-07T16:24:33.830Z,3.97
2022-08-07T16:27:26.946Z,3.45
2022-08-07T16:30:30.707Z,4.28
2022-08-07T16:34:01.722Z,3.17
2022-08-07T16:36:31.455Z,2.60
2022-08-07T16:39:40.512Z,2.88
2022-08-07T16:42:36.609Z,2.50
2022-08-07T16:46:21.246Z,3.10
2022-08-07T16:48:58.492Z,3.55
2022-08-07T16:51:54.160Z,2.55
2022-08-07T16:54:36.400Z,3.10
2022-08-07T16:58:02.411Z,2.65
2022-08-07T17:00:29.881Z,3.55
2022-08-07T17:03:17.534Z,2.67
2022-08-07T17:06:29.036Z,3.33
2022-08-07T17:09:10.674Z,2.50
2022-08-07T17:12:03.911Z,3.55
2022-08-07T17:15:03.990Z,3.13
2022-08-07T17:17:46.794Z,3.30
2022-08-07T17:20:30.114Z,2.85
2022-08-07T17:23:03.078Z,2.20
2022-08-07T17:26:05.701Z,2.65
2022-08-07T17:29:09.906Z,2.47
2022-08-07T17:32:03.359Z,2.50
2022-08-07T17:35:32.994Z,2.92
2022-08-07T17:38:33.415Z,2.55
2022-08-07T17:42:04.257Z,2.40
2022-08-07T17:44:54.534Z,3.22
2022-08-07T17:47:43.135Z,2.90
2022-08-07T17:50:21.286Z,4.50
2022-08-07T17:52:51.701Z,2.70
2022-08-07T17:56:01.117Z,3.50
2022-08-07T17:58:31.207Z,3.20
2022-08-07T18:00:59.492Z,3.78
2022-08-07T18:03:54.001Z,3.35
2022-08-07T18:06:16.452Z,2.63
2022-08-07T18:09:01.307Z,2.83
2022-08-07T18:12:16.598Z,3.63
2022-08-07T18:18:39.925Z,3.80
2022-08-07T18:21:09.617Z,4.72
2022-08-07T18:23:43.782Z,4.30
2022-08-07T18:26:15.221Z,3.80
2022-08-07T18:29:03.015Z,2.88
2022-08-07T18:31:51.088Z,3.67
2022-08-07T18:34:40.972Z,3.72
2022-08-07T18:38:56.989Z,3.75
2022-08-07T18:40:50.111Z,3.50
2022-08-07T18:43:58.686Z,3.55
2022-08-07T18:46:46.324Z,2.97
2022-08-07T18:50:30.074Z,3.40
2022-08-07T18:52:38.023Z,3.80
2022-08-07T18:55:43.607Z,2.90
2022-08-07T18:58:42.807Z,3.05
2022-08-07T19:02:17.389Z,2.95
2022-08-07T19:04:35.269Z,3.78
2022-08-07T19:07:56.722Z,2.92
2022-08-07T19:10:31.340Z,4.03
2022-08-07T19:13:50.269Z,4.38
2022-08-07T19:17:01.277Z,5.85
2022-08-07T19:19:49.117Z,4.68
2022-08-07T19:22:30.246Z,3.75
2022-08-07T19:24:57.726Z,3.20
2022-08-07T19:28:57.147Z,3.00
2022-08-07T19:31:00.763Z,2.97
2022-08-07T19:33:12.953Z,2.97
2022-08-07T19:35:40.866Z,3.65
2022-08-07T19:38:15.899Z,3.72
2022-08-07T19:40:50.745Z,4.03
2022-08-07T19:43:50.005Z,4.40
2022-08-07T19:46:11.490Z,4.30
2022-08-07T19:48:42.688Z,3.83
2022-08-07T19:51:19.291Z,5.05
2022-08-07T19:54:30.889Z,4.30
2022-08-07T19:58:02.405Z,3.95
2022-08-07T19:59:40.704Z,4.13
2022-08-07T20:02:19.084Z,3.95
2022-08-07T20:04:49.232Z,2.90
2022-08-07T20:07:23.807Z,5.85
2022-08-07T20:10:35.473Z,3.70
2022-08-07T20:12:52.195Z,4.85
2022-08-07T20:15:22.081Z,4.35
2022-08-07T20:18:01.637Z,2.85
2022-08-07T20:20:31.402Z,4.35
2022-08-07T20:23:10.805Z,4.68
2022-08-07T20:25:53.331Z,4.35
2022-08-07T20:28:20.860Z,3.63
2022-08-07T20:30:58.244Z,2.70
2022-08-07T20:33:36.618Z,4.65
2022-08-07T20:36:06.855Z,4.18
2022-08-07T20:38:34.566Z,6.03
2022-08-07T20:41:03.821Z,4.65
2022-08-07T20:43:33.329Z,4.35
2022-08-07T20:46:25.922Z,3.63
2022-08-07T20:49:55.100Z,2.92
2022-08-07T20:51:40.428Z,4.25
2022-08-07T20:54:30.230Z,3.58
2022-08-07T20:57:04.799Z,3.95
2022-08-07T21:00:07.874Z,3.95
2022-08-07T21:02:41.110Z,3.95
2022-08-07T21:05:42.727Z,4.28
2022-08-07T21:08:15.562Z,3.25
2022-08-07T21:10:43.822Z,4.50
2022-08-07T21:13:13.373Z,5.10
2022-08-07T21:15:47.495Z,3.67
2022-08-07T21:18:20.191Z,4.90
2022-08-07T21:20:59.507Z,4.22
2022-08-07T21:23:49.374Z,5.30
2022-08-07T21:26:31.566Z,3.70
2022-08-07T21:29:18.679Z,6.63
2022-08-07T21:32:46.609Z,4.47
2022-08-07T21:36:03.867Z,3.53
2022-08-07T21:38:21.549Z,6.28
2022-08-07T21:41:38.033Z,5.22
2022-08-07T21:44:35.149Z,4.50
2022-08-07T21:47:12.470Z,4.53
2022-08-07T21:50:00.932Z,3.92
2022-08-07T21:53:07.752Z,4.82
2022-08-07T21:55:45.519Z,4.65
2022-08-07T21:58:37.354Z,4.05
2022-08-07T22:01:19.542Z,7.45
2022-08-07T22:03:51.510Z,4.15
2022-08-07T22:06:30.623Z,4.82
2022-08-07T22:09:12.848Z,4.53
2022-08-07T22:11:53.045Z,5.38
2022-08-07T22:17:04.312Z,4.18
2022-08-07T22:19:53.233Z,5.03
2022-08-07T22:22:29.065Z,4.78
2022-08-07T22:25:07.678Z,4.20
2022-08-07T22:28:29.457Z,3.97
2022-08-07T22:30:57.779Z,4.85
2022-08-07T22:33:53.638Z,3.65
2022-08-07T22:36:35.854Z,5.80
2022-08-07T22:39:09.567Z,7.00
2022-08-07T22:42:04.008Z,3.45
2022-08-07T22:44:33.553Z,4.05
2022-08-07T22:47:29.726Z,3.45
2022-08-07T22:50:20.740Z,5.47
2022-08-07T22:52:59.359Z,4.88
2022-08-07T22:55:49.892Z,9.82
2022-08-07T22:58:32.510Z,5.22
2022-08-07T23:01:49.493Z,5.35
2022-08-07T23:04:57.678Z,5.85
2022-08-07T23:07:47.191Z,5.10
2022-08-07T23:10:45.506Z,4.97
2022-08-07T23:13:29.405Z,6.45
2022-08-07T23:16:54.782Z,3.72
2022-08-07T23:19:58.013Z,4.55
2022-08-07T23:22:43.869Z,4.15
2022-08-07T23:25:43.495Z,7.25
2022-08-07T23:28:38.615Z,5.18
2022-08-07T23:32:49.422Z,5.20
2022-08-07T23:34:57.083Z,7.20
2022-08-07T23:37:34.404Z,5.20
2022-08-07T23:40:08.142Z,4.57
2022-08-07T23:43:03.037Z,4.60
2022-08-07T23:46:02.940Z,3.92
2022-08-07T23:49:15.199Z,6.07
2022-08-07T23:52:58.608Z,5.72
2022-08-07T23:54:52.136Z,4.88
2022-08-07T23:57:41.799Z,8.10
